createdAt,value
2019-04-06T00:02:40.000Z,49.683
2019-04-06T00:12:40.000Z,49.714
2019-04-06T00:22:40.000Z,49.754
2019-04-06T00:32:41.000Z,49.775
2019-04-06T00:42:40.000Z,49.817
2019-04-06T00:52:40.000Z,49.647
2019-04-06T01:02:40.000Z,49.732
2019-04-06T01:12:40.000Z,49.678
2019-04-06T01:22:40.000Z,49.657
2019-04-06T01:32:40.000Z,49.657
2019-04-06T01:42:40.000Z,49.74
2019-04-06T01:52:40.000Z,49.63
2019-04-06T02:02:40.000Z,49.717
2019-04-06T02:12:40.000Z,49.726
2019-04-06T02:22:40.000Z,49.685
2019-04-06T02:32:40.000Z,49.769
2019-04-06T02:42:40.000Z,49.715
2019-04-06T02:52:40.000Z,49.755
2019-04-06T03:02:41.000Z,49.799
2019-04-06T03:12:42.000Z,49.767
2019-04-06T03:22:44.000Z,49.767
2019-04-06T03:32:40.000Z,49.755
2019-04-06T03:42:42.000Z,49.764
2019-04-06T03:52:41.000Z,49.796
2019-04-06T04:02:40.000Z,49.806
2019-04-06T04:12:41.000Z,49.795
2019-04-06T04:22:41.000Z,49.701
2019-04-06T04:32:40.000Z,49.752
2019-04-06T04:42:40.000Z,49.752
2019-04-06T04:52:40.000Z,49.742
2019-04-06T05:02:40.000Z,49.7
2019-04-06T05:12:40.000Z,49.722
2019-04-06T05:22:40.000Z,49.743
2019-04-06T05:32:40.000Z,49.723
2019-04-06T05:42:40.000Z,49.669
2019-04-06T05:52:42.000Z,49.618
2019-04-06T06:02:41.000Z,49.65
2019-04-06T06:12:41.000Z,49.638
2019-04-06T06:22:41.000Z,49.587
2019-04-06T06:32:41.000Z,49.537
2019-04-06T06:42:41.000Z,49.57
2019-04-06T06:52:41.000Z,49.529
2019-04-06T07:02:41.000Z,49.486
2019-04-06T07:12:41.000Z,49.415
2019-04-06T07:22:43.000Z,49.311
2019-04-06T07:32:43.000Z,49.333
2019-04-06T07:42:41.000Z,49.291
2019-04-06T07:52:41.000Z,49.355
2019-04-06T08:12:41.000Z,49.285
2019-04-06T08:22:41.000Z,49.19
2019-04-06T08:32:41.000Z,49.18
2019-04-06T08:42:41.000Z,49.108
2019-04-06T08:52:41.000Z,49.015
2019-04-06T09:02:41.000Z,48.862
2019-04-06T09:12:41.000Z,48.653
2019-04-06T09:22:41.000Z,48.957
2019-04-06T09:32:44.000Z,48.477
2019-04-06T09:42:44.000Z,48.724
2019-04-06T09:52:41.000Z,48.758
2019-04-06T10:02:41.000Z,48.662
2019-04-06T10:12:42.000Z,48.611
2019-04-06T10:22:41.000Z,48.438
2019-04-06T10:32:45.000Z,48.452
2019-04-06T10:42:41.000Z,48.136
2019-04-06T11:02:45.000Z,47.985
2019-04-06T11:12:41.000Z,48.065
2019-04-06T11:22:43.000Z,47.945
2019-04-06T11:32:41.000Z,47.754
2019-04-06T11:42:41.000Z,47.893
2019-04-06T11:52:41.000Z,47.98
2019-04-06T12:02:41.000Z,47.529
2019-04-06T12:12:41.000Z,47.427
2019-04-06T12:22:41.000Z,47.582
2019-04-06T12:32:41.000Z,47.247
2019-04-06T12:42:42.000Z,46.897
2019-04-06T12:52:41.000Z,46.955
2019-04-06T13:02:41.000Z,46.988
2019-04-06T13:12:41.000Z,46.664
2019-04-06T13:22:41.000Z,46.495
2019-04-06T13:32:41.000Z,46.23
2019-04-06T13:42:41.000Z,46.208
2019-04-06T13:52:42.000Z,46.083
2019-04-06T14:02:43.000Z,46.18
2019-04-06T14:12:41.000Z,46.222
2019-04-06T14:22:42.000Z,46.194
2019-04-06T14:32:41.000Z,46.108
2019-04-06T14:42:42.000Z,46.153
2019-04-06T14:52:42.000Z,46.183
2019-04-06T15:02:42.000Z,46.045
2019-04-06T15:12:42.000Z,46.088
2019-04-06T15:22:42.000Z,46.129
2019-04-06T15:32:42.000Z,46.109
2019-04-06T15:42:42.000Z,46.077
2019-04-06T15:52:42.000Z,46.164
2019-04-06T16:02:44.000Z,46.11
2019-04-06T16:12:42.000Z,46.251
2019-04-06T16:22:42.000Z,46.11
2019-04-06T16:32:42.000Z,46.133
2019-04-06T16:42:42.000Z,46.164
2019-04-06T16:52:44.000Z,46.358
2019-04-06T17:02:42.000Z,46.271
2019-04-06T17:12:42.000Z,46.413
2019-04-06T17:22:42.000Z,46.344
2019-04-06T17:32:43.000Z,46.397
2019-04-06T17:42:42.000Z,46.449
2019-04-06T17:52:45.000Z,46.481
2019-04-06T18:12:42.000Z,46.585
2019-04-06T18:22:42.000Z,46.68
2019-04-06T18:32:42.000Z,46.809
2019-04-06T18:42:42.000Z,46.916
2019-04-06T18:52:43.000Z,46.946
2019-04-06T19:02:42.000Z,47.074
2019-04-06T19:12:43.000Z,47.115
2019-04-06T19:22:42.000Z,47.156
2019-04-06T19:32:42.000Z,47.166
2019-04-06T19:42:42.000Z,47.048
2019-04-06T19:52:42.000Z,47.111
2019-04-06T20:02:46.000Z,47.014
2019-04-06T20:12:42.000Z,47.066
2019-04-06T20:22:42.000Z,47.139
2019-04-06T20:32:42.000Z,47.191
2019-04-06T20:52:42.000Z,47.201
2019-04-06T21:02:42.000Z,47.115
2019-04-06T21:12:42.000Z,47.028
2019-04-06T21:22:42.000Z,46.92
2019-04-06T21:32:42.000Z,47.112
2019-04-06T21:42:43.000Z,47.312
2019-04-06T21:52:42.000Z,47.375
2019-04-06T22:22:42.000Z,47.487
2019-04-06T22:32:42.000Z,47.583
2019-04-06T22:42:42.000Z,47.634
2019-04-06T22:52:42.000Z,47.654
2019-04-06T23:02:42.000Z,47.706
2019-04-06T23:12:42.000Z,47.748
2019-04-06T23:22:43.000Z,47.778
2019-04-06T23:32:43.000Z,47.832
2019-04-06T23:42:47.000Z,47.766
2019-04-06T23:52:43.000Z,47.871
